To NAV CANADA Home Page Login to a new session Search on AWWS site Feedback and Comments Disclaimer Vers la page française équivalente Tips FAQ What's new on the site To the Forecasts and Observations / NOTAM section To "File a Flight Plan" website Publications and other links Update of the User's profile FIC Telephone Numbers My Weather Data Folder Route Weather Data Regional Weather Data Local Weather Data To the Forecasts and Observations / NOTAM section
Request Generated 08/22/2017 at 03:31:48 UTC . Weather information available at that time is displayed.

METAR/TAF

OTTAWA/GATINEAU/QC    

LWIS CYND 220300Z AUTO 26005KT 23/20 A2997=
LWIS CYND 220200Z AUTO 23005KT 24/20 A2997=
METAR CYND 220100Z 22006KT 180V250 15SM SCT050TCU 25/20 A2996 RMK
TCU4 LAST STFD OBS/NEXT 221100 UTC SLP148 DENSITY ALT 1400FT=

*** REMARK        : Forecast period has ended; this was the last TAF issued
*** REMARQUE : La période de prévision est échue; ceci était le dernier TAF qui a été émis
TAF CYND 211739Z 2118/2201 23010G20KT P6SM FEW040 PROB30 2120/2123
VRB15G30KT 3SM TSRA BKN040CB
BECMG 2123/2201 21007KT
RMK NXT FCST WILL BE ISSUED AT 221245Z=
Your time UTC time
Weather data provided by Environment Canada and NAV CANADA